Time;durP1;ratioP1;P1;durP2;ratioP2;P2;SDS_P1;SDS_P2;PMS_P1;PMS_P2;Temp;Humidity;BMP_temperature;BMP_pressure;BME280_temperature;BME280_humidity;BME280_pressure;Samples;Min_cycle;Max_cycle;Signal;HPM_P1;HPM_P2
2023/05/16 00:01:13;;;;;;;15.47;2.57;;;;;;;8.89;100.00;101750.72;4898994;29;20085;-80
2023/05/16 00:03:39;;;;;;;12.33;2.13;;;;;;;8.84;100.00;101741.44;4866339;29;20099;-80
2023/05/16 00:06:04;;;;;;;16.58;2.38;;;;;;;8.80;100.00;101756.34;4884619;29;20024;-80
2023/05/16 00:08:30;;;;;;;17.13;2.67;;;;;;;8.72;100.00;101758.09;4885370;29;20068;-80
2023/05/16 00:10:55;;;;;;;15.30;2.47;;;;;;;8.67;100.00;101759.69;4885461;29;20524;-79
2023/05/16 00:13:24;;;;;;;15.00;1.83;;;;;;;8.65;100.00;101753.59;4885531;29;20281;-80
2023/05/16 00:15:51;;;;;;;19.25;2.53;;;;;;;8.56;100.00;101752.81;4902473;29;20037;-79
2023/05/16 00:18:18;;;;;;;14.67;1.90;;;;;;;8.48;100.00;101767.25;4902074;29;20084;-79
2023/05/16 00:20:44;;;;;;;14.95;1.80;;;;;;;8.38;100.00;101753.91;4902136;29;20056;-80
2023/05/16 00:23:09;;;;;;;10.77;1.77;;;;;;;8.32;100.00;101759.19;4902365;29;20043;-79
2023/05/16 00:25:35;;;;;;;22.50;2.40;;;;;;;8.26;100.00;101755.34;4885248;29;20040;-79
2023/05/16 00:28:00;;;;;;;14.17;1.60;;;;;;;8.19;100.00;101752.53;4902043;29;20610;-80
2023/05/16 00:30:26;;;;;;;13.43;2.20;;;;;;;8.12;100.00;101756.09;4869584;29;20041;-80
2023/05/16 00:32:54;;;;;;;12.57;2.00;;;;;;;8.05;100.00;101762.22;4885144;29;20074;-80
2023/05/16 00:35:20;;;;;;;12.20;1.50;;;;;;;8.02;100.00;101756.31;4884742;29;20279;-80
2023/05/16 00:37:45;;;;;;;16.52;2.17;;;;;;;7.89;100.00;101759.59;4884708;29;20029;-80
2023/05/16 00:40:11;;;;;;;16.23;2.43;;;;;;;7.80;100.00;101760.63;4869128;29;20032;-79
2023/05/16 00:42:37;;;;;;;12.43;1.40;;;;;;;7.71;100.00;101760.66;4869274;29;20093;-79
2023/05/16 00:45:04;;;;;;;17.60;2.33;;;;;;;7.63;100.00;101749.91;4901731;29;20039;-79
2023/05/16 00:47:29;;;;;;;19.67;2.33;;;;;;;7.57;100.00;101750.56;4884764;29;20096;-79
2023/05/16 00:49:55;;;;;;;14.03;1.80;;;;;;;7.50;100.00;101750.44;4869151;29;20081;-79
2023/05/16 00:52:21;;;;;;;18.70;1.70;;;;;;;7.46;100.00;101746.38;4869327;29;20033;-79
2023/05/16 00:54:47;;;;;;;19.88;1.90;;;;;;;7.41;100.00;101750.63;4869211;29;20402;-79
2023/05/16 00:57:12;;;;;;;16.50;2.17;;;;;;;7.36;100.00;101753.84;4884700;29;20072;-79
2023/05/16 00:59:39;;;;;;;14.13;1.87;;;;;;;7.31;100.00;101758.91;4884620;29;20445;-79
2023/05/16 01:02:04;;;;;;;17.90;1.92;;;;;;;7.23;100.00;101759.75;4884544;29;20039;-79
2023/05/16 01:04:29;;;;;;;16.90;1.70;;;;;;;7.19;100.00;101761.13;4901127;29;20417;-79
2023/05/16 01:06:56;;;;;;;18.80;1.57;;;;;;;7.13;100.00;101768.06;4884487;29;20284;-80
2023/05/16 01:09:21;;;;;;;19.42;2.17;;;;;;;7.11;100.00;101769.22;4884417;29;20088;-79
2023/05/16 01:12:05;;;;;;;10.80;1.97;;;;;;;7.07;100.00;101765.16;4868742;29;20434;-79
2023/05/16 01:14:55;;;;;;;12.63;1.92;;;;;;;6.98;100.00;101767.03;4884307;29;20021;-79
2023/05/16 01:17:51;;;;;;;14.20;1.52;;;;;;;6.93;100.00;101775.63;4899856;29;20111;-79
2023/05/16 01:20:33;;;;;;;15.90;1.50;;;;;;;6.86;100.00;101774.63;4901365;29;20084;-80
2023/05/16 01:23:16;;;;;;;14.73;1.77;;;;;;;6.85;100.00;101773.78;4884786;29;20032;-79
2023/05/16 01:26:10;;;;;;;15.57;1.98;;;;;;;6.78;100.00;101778.16;4883739;29;20032;-79
2023/05/16 01:28:36;;;;;;;17.00;1.63;;;;;;;6.71;100.00;101777.13;4901214;29;20037;-79
2023/05/16 01:31:02;;;;;;;18.08;1.48;;;;;;;6.67;100.00;101773.94;4868684;29;20032;-79
2023/05/16 01:33:27;;;;;;;16.45;1.60;;;;;;;6.62;100.00;101775.44;4868921;29;20116;-79
2023/05/16 01:36:05;;;;;;;12.00;1.43;;;;;;;6.58;100.00;101782.19;4901096;29;20047;-79
2023/05/16 01:38:44;;;;;;;10.55;1.60;;;;;;;6.55;100.00;101785.22;4900761;29;20033;-79
2023/05/16 01:41:29;;;;;;;15.18;1.48;;;;;;;6.49;100.00;101775.94;4900638;29;20035;-80
2023/05/16 01:44:10;;;;;;;22.00;1.80;;;;;;;6.42;100.00;101773.06;4900738;29;20036;-79
2023/05/16 01:46:40;;;;;;;13.57;1.83;;;;;;;6.38;100.00;101774.41;4884062;29;20028;-79
2023/05/16 01:49:25;;;;;;;16.98;1.90;;;;;;;6.35;100.00;101787.34;4883929;29;20469;-80
2023/05/16 01:51:56;;;;;;;14.40;1.92;;;;;;;6.32;100.00;101783.16;4884403;29;20028;-79
2023/05/16 01:54:25;;;;;;;16.08;2.22;;;;;;;6.29;100.00;101783.47;4883528;29;20064;-80
2023/05/16 01:56:52;;;;;;;17.05;2.10;;;;;;;6.25;100.00;101792.91;4883811;29;20499;-80
2023/05/16 01:59:20;;;;;;;9.63;1.70;;;;;;;6.22;100.00;101790.53;4883875;29;20036;-79
2023/05/16 02:01:46;;;;;;;12.98;2.05;;;;;;;6.19;100.00;101791.69;4900271;29;20087;-80
2023/05/16 02:04:13;;;;;;;15.10;1.67;;;;;;;6.15;100.00;101799.25;4900278;29;20466;-79
2023/05/16 02:06:39;;;;;;;20.10;2.30;;;;;;;6.11;100.00;101792.50;4853162;29;20056;-79
2023/05/16 02:09:05;;;;;;;21.58;2.33;;;;;;;6.08;100.00;101798.22;4883331;29;20068;-79
2023/05/16 02:11:30;;;;;;;14.10;1.83;;;;;;;6.07;100.00;101804.63;4852208;29;20032;-80
2023/05/16 02:13:56;;;;;;;13.60;1.37;;;;;;;6.03;100.00;101808.63;4883097;29;20037;-80
2023/05/16 02:16:21;;;;;;;24.50;2.37;;;;;;;6.00;100.00;101814.34;4884085;29;20037;-79
2023/05/16 02:18:47;;;;;;;14.97;1.57;;;;;;;5.96;100.00;101802.16;4899978;29;20039;-79
2023/05/16 02:21:12;;;;;;;12.75;1.60;;;;;;;5.94;100.00;101801.50;4868267;29;20288;-79
2023/05/16 02:23:38;;;;;;;14.77;1.90;;;;;;;5.90;100.00;101810.91;4883521;29;20032;-79
2023/05/16 02:26:03;;;;;;;11.40;1.90;;;;;;;5.85;100.00;101803.31;4882686;29;20041;-79
2023/05/16 02:28:29;;;;;;;15.55;1.88;;;;;;;5.83;100.00;101808.03;4851608;29;20032;-79
2023/05/16 02:30:59;;;;;;;16.53;1.90;;;;;;;5.79;100.00;101806.66;4882741;29;20040;-79
2023/05/16 02:33:26;;;;;;;14.20;1.75;;;;;;;5.77;100.00;101806.81;4883319;29;20069;-79
2023/05/16 02:35:52;;;;;;;13.75;1.38;;;;;;;5.74;100.00;101811.66;4882365;29;20040;-80
2023/05/16 02:38:19;;;;;;;16.37;2.10;;;;;;;5.70;100.00;101808.44;4867700;29;20029;-79
2023/05/16 02:40:45;;;;;;;16.40;1.55;;;;;;;5.69;100.00;101814.84;4867550;29;20032;-80
2023/05/16 02:43:11;;;;;;;14.27;1.60;;;;;;;5.68;100.00;101821.22;4882601;29;20096;-79
2023/05/16 02:45:36;;;;;;;14.83;1.77;;;;;;;5.68;100.00;101817.69;4867231;29;20037;-79
2023/05/16 02:48:04;;;;;;;9.77;1.87;;;;;;;5.64;100.00;101822.56;4899479;29;20481;-80
2023/05/16 02:50:30;;;;;;;13.05;1.52;;;;;;;5.61;100.00;101831.78;4867929;29;20059;-80
2023/05/16 02:52:58;;;;;;;13.50;1.48;;;;;;;5.59;100.00;101831.09;4882690;29;20036;-79
2023/05/16 02:55:24;;;;;;;14.70;1.65;;;;;;;5.58;100.00;101837.50;4867287;29;20045;-80
2023/05/16 02:57:49;;;;;;;18.35;2.17;;;;;;;5.58;100.00;101840.19;4867151;29;20049;-79
2023/05/16 03:00:15;;;;;;;10.80;1.77;;;;;;;5.59;100.00;101838.31;4882294;29;20044;-79
2023/05/16 03:02:41;;;;;;;13.05;1.80;;;;;;;5.54;100.00;101844.19;4899555;29;20273;-79
2023/05/16 03:05:07;;;;;;;18.25;2.28;;;;;;;5.52;100.00;101846.19;4899590;29;20052;-78
2023/05/16 03:07:32;;;;;;;11.52;1.85;;;;;;;5.47;100.00;101845.81;4867432;29;20055;-79
2023/05/16 03:09:58;;;;;;;14.13;1.60;;;;;;;5.44;100.00;101852.34;4882357;29;20033;-79
2023/05/16 03:12:23;;;;;;;12.30;1.88;;;;;;;5.39;100.00;101851.16;4882874;29;20305;-79
2023/05/16 03:14:50;;;;;;;12.80;1.60;;;;;;;5.35;100.00;101858.69;4882357;29;20047;-80
2023/05/16 03:17:16;;;;;;;17.92;2.00;;;;;;;5.31;100.00;101861.84;4882515;29;20044;-79
2023/05/16 03:19:41;;;;;;;17.63;2.00;;;;;;;5.28;100.00;101863.00;4866927;29;20041;-79
2023/05/16 03:22:06;;;;;;;14.20;1.70;;;;;;;5.23;100.00;101860.78;4866740;29;20088;-79
2023/05/16 03:24:32;;;;;;;16.77;2.23;;;;;;;5.20;100.00;101865.63;4867091;29;20386;-80
2023/05/16 03:26:58;;;;;;;14.32;2.13;;;;;;;5.20;100.00;101857.56;4866660;29;20036;-80
2023/05/16 03:29:25;;;;;;;14.90;1.70;;;;;;;5.19;100.00;101861.25;4898808;29;20043;-80
2023/05/16 03:31:50;;;;;;;15.07;1.75;;;;;;;5.16;100.00;101858.88;4898850;29;20036;-79
2023/05/16 03:34:15;;;;;;;10.73;1.80;;;;;;;5.16;100.00;101864.25;4882088;29;20025;-79
2023/05/16 03:36:41;;;;;;;18.53;1.97;;;;;;;5.12;100.00;101863.69;4882156;29;20080;-79
2023/05/16 03:39:07;;;;;;;12.05;1.70;;;;;;;5.09;100.00;101866.69;4881294;29;20059;-80
2023/05/16 03:41:33;;;;;;;20.83;1.60;;;;;;;5.08;100.00;101865.84;4866336;29;20092;-80
2023/05/16 03:43:58;;;;;;;9.97;1.83;;;;;;;5.07;100.00;101866.84;4851814;29;20024;-80
2023/05/16 03:46:24;;;;;;;14.75;1.67;;;;;;;5.05;100.00;101870.72;4882242;29;20281;-80
2023/05/16 03:48:49;;;;;;;13.47;2.00;;;;;;;5.01;100.00;101869.31;4881877;29;20135;-80
2023/05/16 03:51:15;;;;;;;15.00;1.93;;;;;;;5.00;100.00;101875.69;4866854;29;20477;-79
2023/05/16 03:53:40;;;;;;;11.90;1.80;;;;;;;4.97;100.00;101874.16;4866586;29;20469;-80
2023/05/16 03:56:06;;;;;;;10.75;2.35;;;;;;;4.95;100.00;101881.53;4866700;29;20033;-80
2023/05/16 03:58:32;;;;;;;20.35;2.20;;;;;;;4.94;100.00;101879.00;4866334;29;20367;-80
2023/05/16 04:00:57;;;;;;;13.87;1.60;;;;;;;4.91;100.00;101880.97;4866399;29;20042;-79
2023/05/16 04:03:27;;;;;;;17.30;2.10;;;;;;;4.89;100.00;101885.69;4881751;29;20032;-79
2023/05/16 04:05:54;;;;;;;16.23;2.08;;;;;;;4.88;100.00;101878.59;4867035;29;20053;-79
2023/05/16 04:08:19;;;;;;;9.75;1.88;;;;;;;4.89;100.00;101890.22;4867012;29;20044;-79
2023/05/16 04:10:45;;;;;;;16.50;2.47;;;;;;;4.89;100.00;101890.22;4851119;29;20028;-79
2023/05/16 04:13:10;;;;;;;15.27;2.40;;;;;;;4.89;100.00;101891.06;4881426;29;20482;-79
2023/05/16 04:15:35;;;;;;;11.90;1.80;;;;;;;4.89;100.00;101891.06;4866188;29;20052;-79
2023/05/16 04:18:04;;;;;;;14.02;1.70;;;;;;;4.88;100.00;101894.72;4866152;29;20297;-79
2023/05/16 04:20:29;;;;;;;12.57;1.88;;;;;;;4.88;100.00;101893.91;4881590;29;20064;-79
2023/05/16 04:22:55;;;;;;;14.30;2.15;;;;;;;4.91;100.00;101901.66;4881900;29;20385;-79
2023/05/16 04:25:20;;;;;;;15.80;1.60;;;;;;;4.93;100.00;101896.97;4881817;29;20040;-79
2023/05/16 04:27:46;;;;;;;21.00;1.93;;;;;;;4.98;100.00;101901.91;4898740;29;20040;-79
2023/05/16 04:30:13;;;;;;;16.27;2.57;;;;;;;5.02;100.00;101908.66;4881227;29;20033;-79
2023/05/16 04:32:39;;;;;;;11.45;2.30;;;;;;;5.07;100.00;101903.69;4881440;29;20029;-80
2023/05/16 04:35:05;;;;;;;19.13;2.13;;;;;;;5.10;100.00;101909.56;4898487;29;20028;-79
2023/05/16 04:37:30;;;;;;;17.00;2.17;;;;;;;5.12;100.00;101920.19;4898198;29;20056;-80
2023/05/16 04:39:56;;;;;;;11.98;1.73;;;;;;;5.14;100.00;101907.44;4866117;29;20045;-79
2023/05/16 04:42:21;;;;;;;16.63;1.97;;;;;;;5.20;100.00;101920.28;4850430;29;20628;-79
2023/05/16 04:44:47;;;;;;;10.87;2.10;;;;;;;5.24;100.00;101912.72;4866146;29;20382;-79
2023/05/16 04:47:13;;;;;;;15.35;2.00;;;;;;;5.29;100.00;101920.38;4850489;29;20128;-79
2023/05/16 04:49:38;;;;;;;14.65;2.13;;;;;;;5.35;100.00;101917.06;4898465;29;20039;-80
2023/05/16 04:52:06;;;;;;;12.67;1.73;;;;;;;5.39;100.00;101921.13;4868452;29;20385;-80
2023/05/16 04:54:31;;;;;;;15.05;1.98;;;;;;;5.46;100.00;101927.56;4884595;29;20376;-83
2023/05/16 04:56:57;;;;;;;20.60;2.50;;;;;;;5.52;100.00;101931.47;4884534;29;20039;-80
2023/05/16 04:59:22;;;;;;;22.63;2.47;;;;;;;5.57;100.00;101927.31;4901377;29;20064;-80
2023/05/16 05:01:48;;;;;;;14.97;2.53;;;;;;;5.62;100.00;101940.31;4884094;29;20505;-80
2023/05/16 05:04:13;;;;;;;11.82;1.67;;;;;;;5.67;100.00;101939.84;4869386;29;20096;-80
2023/05/16 05:06:40;;;;;;;11.57;1.77;;;;;;;5.72;100.00;101945.63;4885001;29;20088;-80
2023/05/16 05:09:05;;;;;;;14.13;1.83;;;;;;;5.77;100.00;101943.28;4884841;29;20080;-80
2023/05/16 05:11:31;;;;;;;8.70;1.50;;;;;;;5.85;100.00;101937.16;4901572;29;20500;-80
2023/05/16 05:13:56;;;;;;;11.38;1.98;;;;;;;5.91;100.00;101933.81;4901182;29;20516;-80
2023/05/16 05:16:22;;;;;;;11.33;1.80;;;;;;;5.97;100.00;101934.03;4901054;29;20037;-80
2023/05/16 05:18:47;;;;;;;11.67;1.93;;;;;;;6.03;100.00;101937.97;4884035;29;20401;-80
2023/05/16 05:21:13;;;;;;;12.13;2.17;;;;;;;6.10;100.00;101935.47;4853355;29;20127;-80
2023/05/16 05:23:38;;;;;;;12.57;1.80;;;;;;;6.17;100.00;101941.94;4884101;29;20046;-80
2023/05/16 05:26:07;;;;;;;20.50;2.50;;;;;;;6.24;100.00;101942.97;4883782;29;20036;-81
2023/05/16 05:28:32;;;;;;;13.60;2.38;;;;;;;6.33;100.00;101949.25;4884306;29;20040;-81
2023/05/16 05:30:58;;;;;;;18.57;2.10;;;;;;;6.41;100.00;101956.56;4884680;29;20039;-80
2023/05/16 05:33:28;;;;;;;15.15;1.70;;;;;;;6.48;100.00;101950.34;4868246;29;20060;-80
2023/05/16 05:35:54;;;;;;;19.00;2.35;;;;;;;6.57;100.00;101953.94;4869172;29;20088;-80
2023/05/16 05:38:19;;;;;;;10.43;1.83;;;;;;;6.65;100.00;101951.25;4868674;29;20037;-80
2023/05/16 05:40:45;;;;;;;10.32;1.98;;;;;;;6.78;100.00;101958.06;4868315;29;20084;-81
2023/05/16 05:43:10;;;;;;;11.87;1.60;;;;;;;6.87;100.00;101961.63;4868159;29;20493;-81
2023/05/16 05:45:39;;;;;;;17.47;2.07;;;;;;;7.02;100.00;101963.50;4883604;29;20096;-80
2023/05/16 05:48:05;;;;;;;22.73;2.15;;;;;;;7.14;100.00;101952.41;4867735;29;20485;-84
2023/05/16 05:50:30;;;;;;;13.05;2.22;;;;;;;7.23;100.00;101959.50;4884021;29;20040;-82
2023/05/16 05:52:55;;;;;;;11.80;1.70;;;;;;;7.34;100.00;101958.34;4868082;29;20033;-82
2023/05/16 05:55:21;;;;;;;9.00;1.60;;;;;;;7.44;100.00;101964.44;4852484;29;20056;-83
2023/05/16 05:57:46;;;;;;;13.00;1.70;;;;;;;7.51;100.00;101965.47;4868037;29;20068;-81
2023/05/16 06:00:12;;;;;;;14.23;2.07;;;;;;;7.58;100.00;101972.91;4884087;29;20036;-83
2023/05/16 06:02:38;;;;;;;11.02;1.77;;;;;;;7.64;100.00;101966.81;4882584;29;20034;-82
2023/05/16 06:05:03;;;;;;;13.53;1.83;;;;;;;7.69;100.00;101972.53;4882916;29;20061;-82
2023/05/16 06:07:30;;;;;;;13.25;2.25;;;;;;;7.81;100.00;101981.16;4883096;29;20045;-82
2023/05/16 06:09:55;;;;;;;12.05;1.65;;;;;;;7.84;100.00;101983.50;4852130;29;20040;-82
2023/05/16 06:12:21;;;;;;;12.00;1.70;;;;;;;7.93;100.00;101979.81;4867842;29;20029;-82
2023/05/16 06:14:46;;;;;;;13.20;2.17;;;;;;;7.99;100.00;101984.53;4851994;29;20390;-82
2023/05/16 06:17:11;;;;;;;15.40;2.13;;;;;;;8.11;100.00;101971.50;4882691;29;20056;-82
2023/05/16 06:19:37;;;;;;;15.70;2.17;;;;;;;8.18;100.00;101977.91;4882443;29;20401;-82
2023/05/16 06:22:02;;;;;;;16.10;2.13;;;;;;;8.26;100.00;101987.88;4882152;29;20052;-82
2023/05/16 06:24:28;;;;;;;13.13;1.90;;;;;;;8.39;100.00;101993.59;4883148;29;20064;-82
2023/05/16 06:26:54;;;;;;;12.57;2.05;;;;;;;8.52;99.65;101995.78;4899602;29;20037;-82
2023/05/16 06:29:19;;;;;;;12.00;1.50;;;;;;;8.56;98.87;101988.16;4899589;29;20029;-82
2023/05/16 06:31:46;;;;;;;12.00;1.60;;;;;;;8.67;98.00;101985.09;4882244;29;20545;-83
2023/05/16 06:34:11;;;;;;;9.05;1.50;;;;;;;8.73;97.82;101991.66;4882531;29;20032;-82
2023/05/16 06:36:37;;;;;;;8.97;1.23;;;;;;;8.77;98.13;101983.00;4882505;29;20470;-83
2023/05/16 06:39:03;;;;;;;13.03;1.67;;;;;;;8.81;96.61;101983.50;4882575;29;20449;-82
2023/05/16 06:41:29;;;;;;;9.67;1.40;;;;;;;8.86;95.30;101986.53;4882493;29;20333;-83
2023/05/16 06:43:54;;;;;;;16.00;1.58;;;;;;;8.91;95.53;102000.34;4899019;29;20454;-82
2023/05/16 06:46:20;;;;;;;7.50;1.60;;;;;;;8.94;95.93;101991.88;4882504;29;20123;-82
2023/05/16 06:48:45;;;;;;;8.53;1.70;;;;;;;9.07;94.28;101995.91;4882781;29;20457;-82
2023/05/16 06:51:10;;;;;;;8.07;1.50;;;;;;;9.18;95.37;101989.22;4882666;29;20040;-86
2023/05/16 06:53:36;;;;;;;11.63;1.40;;;;;;;9.31;93.54;101986.78;4882114;29;20045;-82
2023/05/16 06:56:01;;;;;;;11.77;1.30;;;;;;;9.40;91.10;101993.81;4866514;29;20037;-82
2023/05/16 06:58:27;;;;;;;8.73;1.27;;;;;;;9.40;91.39;101984.88;4866800;29;20469;-82
2023/05/16 07:00:52;;;;;;;10.00;1.30;;;;;;;9.58;90.50;101992.69;4882310;29;20080;-83
2023/05/16 07:03:18;;;;;;;11.68;1.40;;;;;;;9.73;90.05;101993.59;4851447;29;20124;-80
2023/05/16 07:05:43;;;;;;;11.93;1.20;;;;;;;9.78;89.34;101999.31;4866358;29;20413;-81
2023/05/16 07:08:11;;;;;;;10.70;1.27;;;;;;;9.77;86.81;101986.78;4882090;29;20032;-81
2023/05/16 07:10:40;;;;;;;12.18;1.33;;;;;;;9.90;85.59;101991.56;4882101;29;20040;-81
2023/05/16 07:13:06;;;;;;;8.48;1.55;;;;;;;10.07;81.87;101995.00;4867619;29;20055;-81
2023/05/16 07:15:31;;;;;;;6.40;0.73;;;;;;;10.21;81.38;102000.63;4866171;29;20485;-81
2023/05/16 07:17:57;;;;;;;6.37;1.10;;;;;;;10.32;81.04;102005.63;4882514;29;20095;-81
2023/05/16 07:20:22;;;;;;;12.37;1.17;;;;;;;10.44;79.25;102004.16;4866661;29;20075;-81
2023/05/16 07:22:48;;;;;;;10.10;1.00;;;;;;;10.46;79.06;102002.09;4866573;29;20033;-81
2023/05/16 07:25:14;;;;;;;8.97;1.00;;;;;;;10.35;77.83;102003.38;4882336;29;20041;-81
2023/05/16 07:27:43;;;;;;;8.27;0.80;;;;;;;10.25;78.86;102001.97;4866693;29;20037;-81
2023/05/16 07:30:12;;;;;;;10.70;1.63;;;;;;;10.12;77.22;102006.13;4882155;29;20037;-81
2023/05/16 07:32:38;;;;;;;5.43;0.90;;;;;;;10.05;78.29;102007.88;4882470;29;20041;-81
2023/05/16 07:35:03;;;;;;;10.10;0.90;;;;;;;10.09;77.84;102011.09;4866112;29;20477;-81
2023/05/16 07:37:29;;;;;;;9.30;1.02;;;;;;;10.15;78.10;102022.03;4866252;29;20036;-81
2023/05/16 07:39:54;;;;;;;4.93;1.10;;;;;;;10.29;75.74;102016.81;4866140;29;20032;-81
2023/05/16 07:42:20;;;;;;;6.10;0.80;;;;;;;10.39;75.08;102016.59;4881867;29;20036;-81
2023/05/16 07:44:45;;;;;;;12.23;1.00;;;;;;;10.48;76.53;102015.47;4866375;29;20028;-81
2023/05/16 07:47:13;;;;;;;5.35;0.68;;;;;;;10.58;73.86;102007.88;4850948;29;20438;-81
2023/05/16 07:49:38;;;;;;;12.50;1.25;;;;;;;10.73;72.73;102010.59;4881367;29;20032;-81
2023/05/16 07:52:04;;;;;;;9.33;1.33;;;;;;;10.89;72.63;102014.97;4866580;29;20052;-81
2023/05/16 07:54:32;;;;;;;8.93;0.80;;;;;;;10.93;71.43;102015.47;4866701;29;20032;-81
2023/05/16 07:56:57;;;;;;;7.87;0.90;;;;;;;10.88;71.55;102008.72;4881781;29;20025;-81
2023/05/16 07:59:27;;;;;;;4.97;0.63;;;;;;;10.83;72.05;102021.19;4881669;29;20033;-81
2023/05/16 08:01:53;;;;;;;5.18;0.65;;;;;;;10.98;71.15;102013.84;4881371;29;20131;-82
2023/05/16 08:04:19;;;;;;;8.20;1.00;;;;;;;11.16;73.43;102007.16;4881271;29;20049;-81
2023/05/16 08:06:44;;;;;;;7.65;1.20;;;;;;;11.23;70.85;102016.22;4881737;29;20545;-81
2023/05/16 08:09:10;;;;;;;7.87;0.70;;;;;;;11.24;70.41;102018.75;4881173;29;20040;-81
2023/05/16 08:11:38;;;;;;;6.47;1.07;;;;;;;11.24;70.29;102016.03;4866194;29;20041;-81
2023/05/16 08:14:04;;;;;;;5.38;0.90;;;;;;;11.23;72.26;102017.09;4865930;29;20426;-81
2023/05/16 08:16:30;;;;;;;8.57;0.80;;;;;;;11.21;72.40;102021.88;4898120;29;20084;-81
2023/05/16 08:19:01;;;;;;;5.90;0.70;;;;;;;11.25;71.46;102019.63;4898319;29;20279;-81
2023/05/16 08:21:27;;;;;;;6.68;0.75;;;;;;;11.12;69.19;102022.19;4881411;29;20043;-81
2023/05/16 08:23:55;;;;;;;5.03;0.60;;;;;;;11.10;69.84;102026.94;4850608;29;20028;-81
2023/05/16 08:26:21;;;;;;;4.78;0.73;;;;;;;11.08;69.42;102023.59;4867266;29;20468;-81
2023/05/16 08:28:46;;;;;;;5.33;0.67;;;;;;;11.19;71.33;102021.22;4901790;29;20120;-81
2023/05/16 08:31:12;;;;;;;4.10;0.80;;;;;;;11.37;69.74;102022.69;4885226;29;20039;-81
2023/05/16 08:33:37;;;;;;;3.63;0.70;;;;;;;11.70;68.80;102012.13;4869454;29;20483;-81
2023/05/16 08:36:03;;;;;;;3.83;0.90;;;;;;;12.15;66.09;102001.06;4884917;29;20319;-82
2023/05/16 08:38:28;;;;;;;7.07;1.00;;;;;;;12.67;64.82;102008.91;4885423;29;20044;-81
2023/05/16 08:40:54;;;;;;;6.20;0.80;;;;;;;12.93;63.54;102006.34;4869210;29;20045;-81
2023/05/16 08:43:22;;;;;;;5.07;1.00;;;;;;;13.04;62.17;102009.53;4885017;29;20040;-81
2023/05/16 08:45:48;;;;;;;6.70;0.97;;;;;;;13.20;61.87;102001.00;4869695;29;20037;-82
2023/05/16 08:48:15;;;;;;;7.57;1.10;;;;;;;13.19;62.88;102001.19;4869148;29;20075;-81
2023/05/16 08:50:44;;;;;;;7.32;0.90;;;;;;;13.07;63.94;102003.66;4884562;29;20037;-81
2023/05/16 08:53:13;;;;;;;5.25;0.80;;;;;;;12.83;63.17;102005.88;4902060;29;20123;-81
2023/05/16 08:55:40;;;;;;;7.10;1.00;;;;;;;12.74;65.60;102004.34;4901551;29;20040;-82
2023/05/16 08:58:06;;;;;;;9.43;0.90;;;;;;;12.75;65.52;101990.53;4884896;29;20036;-82
2023/05/16 09:00:31;;;;;;;10.82;1.30;;;;;;;13.08;64.73;102005.31;4884508;29;20092;-81
2023/05/16 09:02:58;;;;;;;7.63;0.80;;;;;;;13.29;61.66;101999.75;4885208;29;20044;-81
2023/05/16 09:05:24;;;;;;;9.32;1.20;;;;;;;13.39;62.77;101999.41;4884119;29;20120;-81
2023/05/16 09:07:49;;;;;;;4.90;1.08;;;;;;;13.45;62.22;101994.97;4884498;29;20040;-81
2023/05/16 09:10:15;;;;;;;7.77;1.80;;;;;;;13.33;63.12;101992.84;4869154;29;20028;-81
2023/05/16 09:12:41;;;;;;;5.60;0.90;;;;;;;13.20;61.27;102002.84;4869564;29;20095;-82
2023/05/16 09:15:08;;;;;;;5.80;1.20;;;;;;;13.07;61.60;102012.66;4884277;29;20373;-81
2023/05/16 09:17:38;;;;;;;6.03;1.10;;;;;;;13.05;62.77;101994.84;4884315;29;20044;-81
2023/05/16 09:20:09;;;;;;;4.30;0.85;;;;;;;13.43;63.38;102002.53;4884208;29;20028;-81
2023/05/16 09:22:34;;;;;;;9.68;1.05;;;;;;;13.83;60.84;102005.31;4900655;29;20040;-81
2023/05/16 09:25:00;;;;;;;9.27;1.10;;;;;;;14.14;60.77;102001.97;4900934;29;20400;-81
2023/05/16 09:27:25;;;;;;;4.73;0.73;;;;;;;14.38;57.21;102005.94;4900603;29;20469;-81
2023/05/16 09:29:51;;;;;;;7.38;0.90;;;;;;;14.22;55.42;101987.28;4900762;29;20029;-82
2023/05/16 09:32:17;;;;;;;6.47;0.82;;;;;;;13.87;54.88;102006.59;4884086;29;20024;-81
2023/05/16 09:34:44;;;;;;;4.33;0.80;;;;;;;13.72;55.09;102001.34;4883997;29;20443;-81
2023/05/16 09:37:10;;;;;;;3.95;0.50;;;;;;;13.61;55.48;102002.78;4883461;29;20369;-81
2023/05/16 09:39:36;;;;;;;8.52;0.80;;;;;;;13.61;55.73;101993.75;4883670;29;20044;-82
2023/05/16 09:42:04;;;;;;;4.63;0.77;;;;;;;13.95;56.91;101990.03;4900265;29;20029;-81
2023/05/16 09:44:31;;;;;;;4.00;0.77;;;;;;;14.23;56.93;101996.28;4868712;29;20037;-81
2023/05/16 09:46:56;;;;;;;7.67;0.80;;;;;;;14.28;57.73;102015.63;4900615;29;20047;-81
2023/05/16 09:49:23;;;;;;;4.75;0.98;;;;;;;14.12;58.41;101998.59;4883586;29;20032;-81
2023/05/16 09:51:49;;;;;;;6.72;0.80;;;;;;;13.94;56.71;102012.88;4868049;29;20036;-81
2023/05/16 09:54:14;;;;;;;7.27;0.90;;;;;;;13.89;57.43;102006.38;4868285;29;20039;-81
2023/05/16 09:56:50;;;;;;;7.00;0.90;;;;;;;13.83;57.64;102010.78;4883445;29;20449;-81
2023/05/16 09:59:15;;;;;;;4.40;0.77;;;;;;;13.71;57.67;102009.72;4883403;29;20028;-81
2023/05/16 10:01:41;;;;;;;5.77;0.80;;;;;;;13.79;57.90;102006.78;4883755;29;20103;-81
2023/05/16 10:04:12;;;;;;;4.05;1.13;;;;;;;14.18;57.88;102005.94;4867387;29;20029;-82
2023/05/16 10:06:40;;;;;;;6.18;1.02;;;;;;;14.74;55.31;102001.03;4884044;29;20445;-81
2023/05/16 10:09:08;;;;;;;4.25;0.93;;;;;;;15.08;51.31;102013.50;4900110;29;20040;-81
2023/05/16 10:11:42;;;;;;;4.95;1.00;;;;;;;15.08;51.82;102012.69;4868602;29;20059;-82
2023/05/16 10:14:10;;;;;;;5.07;0.80;;;;;;;15.06;51.40;102003.88;4899864;29;20512;-81
2023/05/16 10:16:36;;;;;;;4.57;0.75;;;;;;;15.07;51.71;101998.19;4883650;29;20119;-81
2023/05/16 10:19:05;;;;;;;4.30;0.60;;;;;;;15.07;50.46;101998.19;4883419;29;20534;-82
2023/05/16 10:21:31;;;;;;;4.40;0.98;;;;;;;15.29;49.96;101994.28;4883391;29;20116;-82
2023/05/16 10:24:02;;;;;;;9.05;1.13;;;;;;;15.71;48.78;101991.91;4899799;29;20069;-81
2023/05/16 10:26:28;;;;;;;4.40;1.03;;;;;;;16.30;48.44;101998.78;4882964;29;20533;-82
2023/05/16 10:28:55;;;;;;;7.50;1.00;;;;;;;16.54;46.66;101987.19;4883126;29;20040;-81
2023/05/16 10:31:21;;;;;;;5.22;0.80;;;;;;;16.23;46.89;101994.44;4899744;29;20481;-82
2023/05/16 10:33:46;;;;;;;3.92;0.95;;;;;;;15.77;47.04;102004.72;4867615;29;20040;-81
2023/05/16 10:36:13;;;;;;;2.77;0.70;;;;;;;15.33;46.97;101999.09;4899486;29;20076;-82
2023/05/16 10:38:39;;;;;;;4.30;0.70;;;;;;;15.08;47.14;102001.75;4899611;29;20382;-81
2023/05/16 10:41:06;;;;;;;3.10;0.60;;;;;;;15.48;47.43;101990.59;4899628;29;20115;-82
2023/05/16 10:43:32;;;;;;;6.97;0.70;;;;;;;15.86;44.54;101989.72;4867310;29;20040;-82
2023/05/16 10:46:09;;;;;;;5.25;0.98;;;;;;;16.11;45.64;101988.88;4882854;29;20037;-82
2023/05/16 10:48:37;;;;;;;6.88;1.30;;;;;;;16.46;44.41;101986.41;4899897;29;20040;-83
2023/05/16 10:51:24;;;;;;;11.07;0.93;;;;;;;16.77;44.78;101991.97;4899319;29;20040;-83
2023/05/16 10:53:53;;;;;;;5.00;0.75;;;;;;;17.03;43.94;101990.81;4899817;29;20036;-83
2023/05/16 10:56:24;;;;;;;3.70;0.90;;;;;;;17.22;45.53;101997.13;4882692;29;20034;-83
2023/05/16 10:58:51;;;;;;;4.82;1.10;;;;;;;17.30;44.29;101991.31;4899175;29;20041;-82
2023/05/16 11:01:17;;;;;;;4.00;0.80;;;;;;;17.71;43.63;101992.38;4867827;29;20036;-83
2023/05/16 11:03:57;;;;;;;5.70;1.10;;;;;;;18.44;43.38;101988.63;4899395;29;20405;-82
2023/05/16 11:06:31;;;;;;;3.95;0.90;;;;;;;18.59;42.56;101992.56;4882619;29;20049;-83
2023/05/16 11:09:05;;;;;;;3.60;1.13;;;;;;;17.97;41.83;102000.47;4883315;29;20029;-83
2023/05/16 11:12:02;;;;;;;5.20;0.98;;;;;;;17.52;43.46;102002.59;4883073;29;20199;-84
2023/05/16 11:14:36;;;;;;;10.97;1.10;;;;;;;17.98;42.98;102007.59;4882460;29;20528;-82
2023/05/16 11:17:14;;;;;;;5.07;0.80;;;;;;;20.31;39.80;101987.16;4882917;29;20477;-82
2023/05/16 11:19:42;;;;;;;4.45;0.80;;;;;;;22.93;33.80;101983.25;4882399;29;20025;-83
2023/05/16 11:22:18;;;;;;;5.82;0.88;;;;;;;24.50;30.43;101982.75;4881936;29;20032;-82